Time;durP1;ratioP1;P1;durP2;ratioP2;P2;SDS_P1;SDS_P2;PMS_P1;PMS_P2;Temp;Humidity;BMP_temperature;BMP_pressure;BME280_temperature;BME280_humidity;BME280_pressure;Samples;Min_cycle;Max_cycle;Signal;HPM_P1;HPM_P2
2022/07/16 00:02:41;;;;;;;1.40;1.00;;;;;;;18.37;46.80;100588.25;5589334;31;34110;-67
2022/07/16 00:05:45;;;;;;;3.05;1.30;;;;;;;18.39;46.80;100582.69;5589094;31;34226;-67
2022/07/16 00:08:47;;;;;;;2.20;1.27;;;;;;;18.35;46.78;100584.16;5589119;31;34073;-68
2022/07/16 00:11:50;;;;;;;6.05;1.25;;;;;;;18.33;47.17;100579.00;5589251;31;34383;-68
2022/07/16 00:14:53;;;;;;;2.05;1.30;;;;;;;18.29;47.09;100571.56;5588994;31;33885;-67
2022/07/16 00:21:17;;;;;;;2.75;1.33;;;;;;;18.23;47.63;100562.50;5587736;31;32753;-67
2022/07/16 00:24:23;;;;;;;1.90;1.30;;;;;;;18.20;47.77;100561.06;5588155;31;33125;-67
2022/07/16 00:27:25;;;;;;;3.20;1.42;;;;;;;18.19;47.70;100562.13;5588719;31;34003;-67
2022/07/16 00:30:29;;;;;;;6.93;1.30;;;;;;;18.18;47.69;100560.47;5588081;31;34122;-68
2022/07/16 00:33:32;;;;;;;2.58;1.23;;;;;;;18.15;47.90;100568.91;5588951;31;34167;-67
2022/07/16 00:36:37;;;;;;;1.90;1.10;;;;;;;18.10;48.10;100566.09;5589883;31;33941;-67
2022/07/16 00:39:39;;;;;;;2.50;1.20;;;;;;;18.05;48.19;100560.53;5590871;31;34731;-67
2022/07/16 00:42:42;;;;;;;1.92;1.10;;;;;;;17.97;48.55;100566.09;5590948;31;34669;-66
2022/07/16 00:45:45;;;;;;;3.97;1.20;;;;;;;17.93;48.67;100561.38;5590926;31;33967;-67
2022/07/16 00:48:48;;;;;;;4.03;1.05;;;;;;;17.91;48.80;100568.81;5591241;31;33930;-67
2022/07/16 00:51:52;;;;;;;3.50;1.48;;;;;;;17.88;48.84;100567.38;5591100;31;34157;-67
2022/07/16 00:54:55;;;;;;;1.52;1.00;;;;;;;17.89;48.85;100570.88;5590230;31;34079;-67
2022/07/16 00:57:59;;;;;;;1.85;1.30;;;;;;;17.87;48.83;100559.53;5577142;31;34586;-68
2022/07/16 01:01:02;;;;;;;1.98;1.30;;;;;;;17.81;49.19;100564.69;5590029;31;34169;-67
2022/07/16 01:04:07;;;;;;;2.78;1.20;;;;;;;17.83;49.03;100564.50;5590753;31;34634;-67
2022/07/16 01:07:10;;;;;;;5.72;1.37;;;;;;;17.75;49.13;100568.25;5589916;31;33321;-66
2022/07/16 01:10:14;;;;;;;1.90;1.15;;;;;;;17.70;49.41;100568.03;5590083;31;33224;-67
2022/07/16 01:13:17;;;;;;;2.58;1.20;;;;;;;17.68;49.54;100577.31;5590655;31;33925;-68
2022/07/16 01:16:20;;;;;;;2.92;1.50;;;;;;;17.61;49.82;100573.84;5590667;31;34668;-68
2022/07/16 01:19:23;;;;;;;2.87;1.40;;;;;;;17.60;49.96;100575.69;5590534;31;34697;-68
2022/07/16 01:22:26;;;;;;;2.17;1.17;;;;;;;17.64;49.82;100576.09;5590850;31;34268;-67
2022/07/16 01:25:29;;;;;;;5.37;1.40;;;;;;;17.56;50.15;100571.75;5590578;31;34693;-67
2022/07/16 01:28:32;;;;;;;2.40;1.25;;;;;;;17.59;50.20;100570.53;5590653;31;34089;-67
2022/07/16 01:31:35;;;;;;;4.37;1.30;;;;;;;17.49;50.48;100570.91;5589166;31;33569;-68
2022/07/16 01:34:39;;;;;;;4.87;1.20;;;;;;;17.46;50.53;100567.84;5589588;31;34700;-68
2022/07/16 01:37:42;;;;;;;2.30;1.37;;;;;;;17.37;51.04;100565.38;5588800;31;32688;-67
2022/07/16 01:40:45;;;;;;;2.97;1.35;;;;;;;17.35;51.12;100567.44;5589678;31;34110;-67
2022/07/16 01:43:47;;;;;;;2.33;1.40;;;;;;;17.26;51.32;100571.34;5589463;31;34631;-68
2022/07/16 01:46:55;;;;;;;3.25;1.50;;;;;;;17.14;51.73;100572.16;5589049;31;33897;-68
2022/07/16 01:49:58;;;;;;;2.37;1.35;;;;;;;17.08;52.18;100570.31;5589359;31;33922;-67
2022/07/16 01:53:01;;;;;;;2.85;1.50;;;;;;;16.99;52.33;100572.37;5588463;31;34634;-67
2022/07/16 01:56:04;;;;;;;2.87;1.45;;;;;;;16.97;52.51;100579.78;5588582;31;32949;-68
2022/07/16 01:59:10;;;;;;;2.67;1.23;;;;;;;16.95;52.42;100581.84;5589509;31;34641;-67
2022/07/16 02:02:14;;;;;;;2.80;1.30;;;;;;;16.96;52.20;100580.81;5588410;31;34703;-68
2022/07/16 02:05:17;;;;;;;1.65;1.12;;;;;;;16.95;52.31;100587.19;5589473;31;33958;-67
2022/07/16 02:08:20;;;;;;;2.45;1.15;;;;;;;16.90;52.66;100582.44;5589290;31;34321;-68
2022/07/16 02:11:23;;;;;;;3.25;1.40;;;;;;;16.86;52.64;100578.53;5589013;31;34558;-68
2022/07/16 02:14:26;;;;;;;4.05;1.40;;;;;;;16.76;53.23;100569.22;5589073;31;34011;-68
2022/07/16 02:17:29;;;;;;;3.12;1.50;;;;;;;16.74;53.09;100572.13;5588958;31;33991;-68
2022/07/16 02:20:32;;;;;;;22.40;3.08;;;;;;;16.66;54.02;100569.63;5588963;31;34207;-68
2022/07/16 02:23:35;;;;;;;2.25;1.25;;;;;;;16.55;58.56;100572.06;5588839;31;34483;-67
2022/07/16 02:26:37;;;;;;;1.98;1.40;;;;;;;16.53;54.30;100577.59;5589223;31;34144;-67
2022/07/16 02:29:40;;;;;;;5.60;1.67;;;;;;;16.57;53.92;100573.50;5583558;31;141496;-68
2022/07/16 02:32:43;;;;;;;1.70;1.20;;;;;;;16.52;53.96;100570.59;5589279;31;32837;-67
2022/07/16 02:35:46;;;;;;;3.25;1.30;;;;;;;16.44;54.49;100576.97;5590274;31;34434;-67
2022/07/16 02:38:49;;;;;;;2.67;1.45;;;;;;;16.41;54.78;100572.00;5589971;31;34609;-67
2022/07/16 02:41:52;;;;;;;3.08;1.35;;;;;;;16.35;54.86;100575.50;5589838;31;33969;-67
2022/07/16 02:44:55;;;;;;;3.42;1.50;;;;;;;16.36;54.77;100570.97;5590375;31;33894;-67
2022/07/16 02:47:58;;;;;;;2.17;1.60;;;;;;;16.32;55.27;100570.53;5589945;31;34634;-67
2022/07/16 02:51:01;;;;;;;3.45;1.67;;;;;;;16.29;55.31;100580.81;5589730;31;34587;-68
2022/07/16 02:54:04;;;;;;;3.03;1.42;;;;;;;16.17;55.62;100583.22;5588749;31;33578;-68
2022/07/16 02:57:07;;;;;;;3.05;1.50;;;;;;;16.10;55.90;100587.72;5589825;31;34491;-68
2022/07/16 03:00:12;;;;;;;6.87;1.48;;;;;;;16.04;56.38;100584.00;5588861;31;33940;-68
2022/07/16 03:03:15;;;;;;;4.05;1.60;;;;;;;15.97;56.81;100591.19;5589988;31;33896;-68
2022/07/16 03:06:18;;;;;;;7.78;1.50;;;;;;;15.87;57.40;100598.72;5588799;31;32510;-68
2022/07/16 03:09:21;;;;;;;2.67;1.60;;;;;;;15.82;57.22;100597.66;5589769;31;34623;-67
2022/07/16 03:12:24;;;;;;;2.62;1.77;;;;;;;15.82;57.27;100606.53;5589657;31;35286;-68
2022/07/16 03:15:27;;;;;;;2.20;1.48;;;;;;;15.81;57.51;100596.00;5589702;31;33976;-68
2022/07/16 03:18:30;;;;;;;2.85;1.20;;;;;;;15.81;57.51;100606.72;5589030;31;32565;-68
2022/07/16 03:21:34;;;;;;;3.22;1.77;;;;;;;15.81;57.69;100606.72;5589996;31;33981;-67
2022/07/16 03:24:37;;;;;;;4.65;1.67;;;;;;;15.80;57.70;100613.06;5589505;31;34577;-67
2022/07/16 03:27:40;;;;;;;2.53;1.67;;;;;;;15.79;57.81;100612.25;5589982;31;33938;-67
2022/07/16 03:30:43;;;;;;;3.20;1.35;;;;;;;15.80;57.97;100619.25;5589365;31;35242;-68
2022/07/16 03:33:46;;;;;;;3.45;1.70;;;;;;;15.84;58.25;100608.97;5589474;31;34300;-67
2022/07/16 03:36:49;;;;;;;3.92;1.48;;;;;;;15.85;57.85;100614.16;5589901;31;33923;-68
2022/07/16 03:39:52;;;;;;;4.62;1.60;;;;;;;15.83;58.31;100618.84;5589417;31;34560;-68
2022/07/16 03:42:55;;;;;;;3.20;1.67;;;;;;;15.87;57.99;100621.97;5589486;31;34743;-68
2022/07/16 03:45:58;;;;;;;4.22;1.87;;;;;;;15.77;58.66;100618.81;5588629;31;33923;-68
2022/07/16 03:49:02;;;;;;;4.50;1.73;;;;;;;15.78;58.73;100626.63;5589294;31;34694;-68
2022/07/16 03:52:04;;;;;;;4.05;1.60;;;;;;;15.89;57.93;100626.09;5575558;31;32716;-68
2022/07/16 03:55:08;;;;;;;3.08;1.37;;;;;;;15.96;57.64;100623.47;5589144;31;34208;-68
2022/07/16 03:58:10;;;;;;;1.52;1.33;;;;;;;16.03;59.08;100625.16;5589227;31;34040;-68
2022/07/16 04:01:13;;;;;;;3.12;1.60;;;;;;;16.04;59.33;100631.34;5588466;31;34007;-67
2022/07/16 04:04:17;;;;;;;2.08;1.30;;;;;;;16.09;58.86;100627.06;5589235;31;34641;-68
2022/07/16 04:07:19;;;;;;;2.97;1.50;;;;;;;16.19;59.38;100629.38;5589190;31;34522;-68
2022/07/16 04:10:22;;;;;;;3.85;1.40;;;;;;;16.28;58.94;100632.69;5588942;31;34279;-68
2022/07/16 04:13:26;;;;;;;5.68;1.35;;;;;;;16.31;59.68;100627.78;5589238;31;34030;-68
2022/07/16 04:16:29;;;;;;;5.32;1.62;;;;;;;16.45;58.87;100629.50;5588931;31;34665;-68
2022/07/16 04:19:32;;;;;;;3.78;1.60;;;;;;;16.50;58.59;100628.91;5588876;31;34592;-67
2022/07/16 04:22:35;;;;;;;4.60;1.70;;;;;;;16.58;56.82;100625.22;5588896;31;33940;-68
2022/07/16 04:25:38;;;;;;;3.70;1.48;;;;;;;16.69;58.50;100628.19;5588701;31;34194;-68
2022/07/16 04:28:41;;;;;;;2.20;1.40;;;;;;;16.95;54.78;100630.06;5588081;31;33633;-68
2022/07/16 04:31:43;;;;;;;3.22;1.40;;;;;;;16.91;54.27;100632.34;5588853;31;34072;-68
2022/07/16 04:34:47;;;;;;;2.65;1.40;;;;;;;17.00;53.99;100632.97;5587430;31;32455;-68
2022/07/16 04:37:50;;;;;;;3.22;1.40;;;;;;;17.08;54.24;100630.13;5588854;31;34708;-68
2022/07/16 04:40:53;;;;;;;2.60;1.20;;;;;;;17.15;53.72;100630.13;5588388;31;34591;-68
2022/07/16 04:43:55;;;;;;;3.47;1.50;;;;;;;17.15;53.45;100630.13;5588439;31;35253;-68
2022/07/16 04:46:58;;;;;;;2.42;1.42;;;;;;;17.28;53.65;100627.47;5588384;31;34513;-68
2022/07/16 04:50:01;;;;;;;3.78;1.40;;;;;;;17.37;53.31;100619.00;5588451;31;34061;-68
2022/07/16 04:53:05;;;;;;;2.60;1.40;;;;;;;17.52;52.77;100620.66;5588212;31;34132;-68
2022/07/16 04:56:07;;;;;;;3.42;1.40;;;;;;;17.62;52.47;100621.91;5588121;31;35418;-68
2022/07/16 04:59:10;;;;;;;3.62;1.40;;;;;;;17.73;52.19;100623.97;5587399;31;34649;-68
2022/07/16 05:05:36;;;;;;;3.15;1.33;;;;;;;17.79;51.99;100625.81;5588283;31;34076;-68
2022/07/16 05:08:39;;;;;;;2.33;1.40;;;;;;;17.77;52.32;100630.56;5588352;31;33877;-68
2022/07/16 05:11:43;;;;;;;3.53;1.40;;;;;;;17.91;52.12;100625.19;5587865;31;35194;-68
2022/07/16 05:14:46;;;;;;;3.28;1.33;;;;;;;18.03;51.91;100629.69;5588209;31;33940;-68
2022/07/16 05:17:49;;;;;;;2.05;1.35;;;;;;;18.10;51.86;100624.31;5587629;31;34487;-69
2022/07/16 05:20:52;;;;;;;3.50;1.52;;;;;;;18.27;51.54;100625.50;5587553;31;33967;-67
2022/07/16 05:23:55;;;;;;;2.83;1.37;;;;;;;18.32;51.06;100628.38;5590626;31;34565;-67
2022/07/16 05:26:58;;;;;;;3.80;1.33;;;;;;;18.41;50.64;100627.09;5590813;31;34777;-67
2022/07/16 05:30:02;;;;;;;3.97;1.37;;;;;;;18.46;50.58;100626.44;5576421;31;34203;-67
2022/07/16 05:33:12;;;;;;;3.08;1.37;;;;;;;18.64;50.45;100621.22;5590601;31;33888;-67
2022/07/16 05:36:15;;;;;;;2.83;1.30;;;;;;;18.79;50.08;100623.63;5590610;31;34047;-67
2022/07/16 05:39:18;;;;;;;3.50;1.12;;;;;;;18.86;50.15;100627.13;5590496;31;35459;-68
2022/07/16 05:42:21;;;;;;;2.85;1.12;;;;;;;18.97;50.20;100634.50;5589890;31;32600;-67
2022/07/16 05:45:24;;;;;;;2.92;1.10;;;;;;;19.01;49.67;100633.84;5590437;31;33980;-66
2022/07/16 05:48:28;;;;;;;3.47;1.30;;;;;;;19.15;49.61;100634.59;5589703;31;34665;-66
2022/07/16 05:51:31;;;;;;;3.10;1.30;;;;;;;19.19;49.63;100630.41;5590313;31;33924;-67
2022/07/16 05:54:34;;;;;;;5.05;2.53;;;;;;;19.44;48.66;100638.53;5589620;31;32745;-67
2022/07/16 05:57:37;;;;;;;3.58;1.08;;;;;;;19.61;48.27;100636.94;5590178;31;34856;-67
2022/07/16 06:00:40;;;;;;;2.70;1.20;;;;;;;19.85;46.81;100633.41;5589663;31;33658;-67
2022/07/16 06:03:43;;;;;;;1.42;1.00;;;;;;;19.90;46.98;100630.88;5590271;31;33998;-67
2022/07/16 06:06:46;;;;;;;2.30;1.42;;;;;;;19.87;46.38;100636.69;5590111;31;35129;-67
2022/07/16 06:09:49;;;;;;;1.90;1.15;;;;;;;19.77;47.22;100635.56;5589444;31;33964;-67
2022/07/16 06:12:52;;;;;;;2.95;1.15;;;;;;;19.85;46.22;100635.25;5590206;31;34596;-67
2022/07/16 06:15:55;;;;;;;2.37;1.05;;;;;;;19.90;46.56;100638.13;5589121;31;32418;-67
2022/07/16 06:18:57;;;;;;;5.97;1.37;;;;;;;19.90;46.44;100635.41;5589182;31;32680;-67
2022/07/16 06:22:00;;;;;;;1.45;0.98;;;;;;;20.00;46.70;100640.28;5590487;31;33995;-67
2022/07/16 06:25:04;;;;;;;2.47;1.23;;;;;;;20.09;46.26;100644.37;5590165;31;34044;-66
2022/07/16 06:28:07;;;;;;;4.82;1.30;;;;;;;20.32;45.93;100645.38;5590023;31;34724;-67
2022/07/16 06:31:10;;;;;;;13.48;1.50;;;;;;;20.45;45.35;100643.56;5575881;31;34041;-67
2022/07/16 06:34:13;;;;;;;1.95;1.08;;;;;;;20.60;45.24;100652.91;5589111;31;33906;-66
2022/07/16 06:37:16;;;;;;;1.95;1.10;;;;;;;20.75;44.61;100664.13;5589611;31;34699;-67
2022/07/16 06:40:18;;;;;;;2.62;1.10;;;;;;;20.78;44.28;100660.13;5589005;31;34251;-67
2022/07/16 06:43:22;;;;;;;2.83;1.10;;;;;;;20.99;44.02;100658.81;5589040;31;34611;-67
2022/07/16 06:46:28;;;;;;;8.48;1.30;;;;;;;21.18;43.39;100660.44;5589926;31;33983;-67
2022/07/16 06:49:31;;;;;;;2.62;1.20;;;;;;;21.35;43.37;100657.91;5590139;31;34540;-67
2022/07/16 06:52:34;;;;;;;3.72;1.17;;;;;;;21.47;43.17;100658.75;5589313;31;33887;-67
2022/07/16 06:55:37;;;;;;;3.17;1.27;;;;;;;21.77;41.82;100664.06;5589656;31;34620;-67
2022/07/16 06:58:40;;;;;;;2.12;1.30;;;;;;;21.87;41.81;100664.31;5589584;31;34107;-67
2022/07/16 07:01:43;;;;;;;4.55;1.20;;;;;;;22.12;40.43;100656.81;5590035;31;34327;-67
2022/07/16 07:04:46;;;;;;;5.25;1.30;;;;;;;22.50;39.69;100657.09;5589146;31;32318;-67
2022/07/16 07:07:49;;;;;;;1.98;1.05;;;;;;;22.40;40.22;100651.47;5588166;31;33194;-68
2022/07/16 07:10:52;;;;;;;3.45;1.00;;;;;;;22.54;38.99;100660.16;5589037;31;34082;-66
2022/07/16 07:13:55;;;;;;;3.67;1.35;;;;;;;22.94;39.07;100661.00;5589656;31;34633;-67
2022/07/16 07:16:58;;;;;;;3.92;1.12;;;;;;;23.45;38.58;100661.91;5589613;31;34107;-68
2022/07/16 07:20:02;;;;;;;2.92;1.30;;;;;;;23.48;36.73;100652.47;5589538;31;33992;-67
2022/07/16 07:23:07;;;;;;;2.53;1.17;;;;;;;23.52;36.70;100649.03;5588688;31;33964;-66
2022/07/16 07:26:10;;;;;;;1.77;1.10;;;;;;;23.83;37.04;100653.84;5589563;31;33921;-68
2022/07/16 07:29:13;;;;;;;1.73;0.98;;;;;;;24.07;36.41;100662.59;5588221;31;32929;-67
2022/07/16 07:32:16;;;;;;;1.98;0.95;;;;;;;23.82;34.94;100651.38;5589245;31;33959;-67
2022/07/16 07:35:19;;;;;;;1.45;0.90;;;;;;;23.96;34.49;100649.97;5589517;31;34166;-67
2022/07/16 07:38:22;;;;;;;2.17;1.20;;;;;;;24.12;33.73;100651.81;5588629;31;34546;-68
2022/07/16 07:41:25;;;;;;;2.20;1.30;;;;;;;24.77;33.50;100656.47;5589850;31;35291;-68
2022/07/16 07:44:27;;;;;;;2.35;0.95;;;;;;;25.55;31.91;100660.56;5588561;31;34076;-68
2022/07/16 07:47:31;;;;;;;2.03;0.90;;;;;;;26.45;30.76;100651.34;5588686;31;32864;-68
2022/07/16 07:50:34;;;;;;;4.03;1.12;;;;;;;26.32;30.36;100649.94;5588563;31;32250;-68
2022/07/16 07:53:38;;;;;;;3.72;0.82;;;;;;;26.81;28.86;100646.84;5589441;31;33954;-68
2022/07/16 07:56:40;;;;;;;2.45;0.93;;;;;;;26.08;30.67;100640.53;5588712;31;33320;-68
2022/07/16 07:59:43;;;;;;;2.17;1.00;;;;;;;27.21;29.34;100646.94;5589199;31;34356;-68
2022/07/16 08:02:46;;;;;;;1.92;1.00;;;;;;;27.06;29.51;100646.13;5589182;31;35207;-68
2022/07/16 08:05:49;;;;;;;1.48;0.93;;;;;;;28.31;29.19;100649.88;5589101;31;34125;-68
2022/07/16 08:08:52;;;;;;;3.55;1.10;;;;;;;27.54;28.23;100640.19;5589273;31;33976;-69
2022/07/16 08:11:55;;;;;;;2.40;0.90;;;;;;;28.24;27.37;100637.59;5588942;31;34257;-68
2022/07/16 08:14:58;;;;;;;2.17;0.90;;;;;;;28.87;27.46;100631.31;5588029;31;34281;-68
2022/07/16 08:18:01;;;;;;;1.67;0.80;;;;;;;29.65;25.81;100627.72;5589124;31;33936;-68
2022/07/16 08:21:04;;;;;;;1.30;0.80;;;;;;;29.01;26.20;100636.94;5589069;31;33911;-68
2022/07/16 08:27:29;;;;;;;1.60;1.10;;;;;;;27.91;27.42;100630.84;5588637;31;34539;-68
2022/07/16 08:30:32;;;;;;;2.75;1.00;;;;;;;28.46;26.45;100627.97;5588549;31;34105;-68
2022/07/16 08:33:35;;;;;;;3.62;1.02;;;;;;;28.62;26.47;100622.41;5588418;31;34087;-69
2022/07/16 08:36:38;;;;;;;1.67;0.75;;;;;;;29.36;25.69;100619.50;5588351;31;33909;-69
2022/07/16 08:39:43;;;;;;;4.97;1.15;;;;;;;30.57;23.80;100629.19;5587717;31;34325;-69
2022/07/16 08:42:47;;;;;;;2.60;1.10;;;;;;;30.72;24.25;100625.44;5586530;31;32387;-69
2022/07/16 08:45:51;;;;;;;1.92;0.73;;;;;;;30.61;24.27;100616.53;5586991;31;32341;-68
2022/07/16 08:48:54;;;;;;;2.10;0.93;;;;;;;31.22;23.51;100618.41;5588286;31;34164;-69
2022/07/16 08:51:59;;;;;;;2.05;1.08;;;;;;;32.41;22.32;100619.50;5588208;31;34580;-69
2022/07/16 08:55:05;;;;;;;3.25;0.90;;;;;;;33.83;20.34;100617.78;5588099;31;34360;-70
2022/07/16 08:58:08;;;;;;;1.83;0.90;;;;;;;32.74;21.26;100615.50;5589919;31;35327;-68
2022/07/16 09:01:11;;;;;;;4.05;0.95;;;;;;;30.31;24.22;100611.41;5589929;31;34068;-67
2022/07/16 09:04:14;;;;;;;4.22;1.00;;;;;;;31.57;23.02;100613.44;5589233;31;34685;-68
2022/07/16 09:07:18;;;;;;;2.28;0.93;;;;;;;31.75;22.28;100615.31;5590779;31;34143;-68
2022/07/16 09:10:21;;;;;;;3.45;0.75;;;;;;;31.20;23.18;100600.59;5590409;31;33983;-69
2022/07/16 09:13:24;;;;;;;1.45;0.93;;;;;;;31.66;22.03;100595.97;5590610;31;34746;-70
2022/07/16 09:16:30;;;;;;;1.55;0.90;;;;;;;33.38;20.27;100594.19;5590343;31;34060;-67
2022/07/16 09:19:33;;;;;;;3.47;1.08;;;;;;;34.13;19.77;100596.81;5589640;31;34092;-68
2022/07/16 09:22:37;;;;;;;1.40;0.90;;;;;;;35.96;18.64;100594.50;5590142;31;34698;-69
2022/07/16 09:25:47;;;;;;;1.95;1.00;;;;;;;35.59;19.01;100590.56;5590381;31;34099;-66
2022/07/16 09:28:51;;;;;;;3.50;1.15;;;;;;;34.83;19.65;100593.09;5590389;31;33921;-66
2022/07/16 09:31:54;;;;;;;1.42;1.00;;;;;;;33.54;20.71;100601.75;5590115;31;34882;-67
2022/07/16 09:35:11;;;;;;;1.73;0.93;;;;;;;32.19;21.41;100604.59;5589671;31;33272;-67
2022/07/16 09:38:14;;;;;;;3.45;1.20;;;;;;;31.17;22.30;100593.81;5590058;31;34131;-67
2022/07/16 09:41:19;;;;;;;1.90;1.20;;;;;;;31.56;22.25;100589.84;5590386;31;33975;-66
2022/07/16 09:44:24;;;;;;;3.00;0.98;;;;;;;32.55;22.28;100590.91;5590429;31;35246;-66
2022/07/16 09:47:28;;;;;;;2.20;1.10;;;;;;;30.74;23.05;100589.53;5589607;31;34671;-66
2022/07/16 09:50:36;;;;;;;1.42;1.00;;;;;;;28.58;25.50;100589.41;5590591;31;33925;-67
2022/07/16 09:53:40;;;;;;;3.72;1.10;;;;;;;27.78;26.61;100577.72;5590542;31;34562;-66
2022/07/16 09:56:44;;;;;;;2.72;1.35;;;;;;;26.94;28.04;100574.75;5589250;31;34053;-67
2022/07/16 09:59:47;;;;;;;2.70;1.08;;;;;;;26.47;28.93;100577.62;5590240;31;33942;-67
2022/07/16 10:03:14;;;;;;;2.55;1.40;;;;;;;26.05;29.79;100574.97;5578714;31;33783;-66
2022/07/16 10:06:19;;;;;;;4.65;1.48;;;;;;;26.92;28.68;100577.72;5589868;31;34027;-66
2022/07/16 10:09:23;;;;;;;3.65;1.40;;;;;;;28.61;26.73;100580.63;5589938;31;34002;-66
2022/07/16 10:12:26;;;;;;;4.37;0.95;;;;;;;31.65;22.70;100566.13;5576042;31;32415;-67
2022/07/16 10:15:30;;;;;;;2.60;1.10;;;;;;;33.77;20.28;100583.25;5590001;31;35278;-66
2022/07/16 10:18:40;;;;;;;3.12;1.20;;;;;;;33.11;21.12;100581.38;5589947;31;35145;-66
2022/07/16 10:22:16;;;;;;;2.62;1.15;;;;;;;33.81;20.12;100580.69;5590083;31;34070;-67
2022/07/16 10:25:25;;;;;;;1.65;1.20;;;;;;;32.47;21.35;100580.66;5589943;31;34590;-66
2022/07/16 10:28:40;;;;;;;;;;;;;;;31.61;22.15;100570.59;5590362;31;33978;-67
2022/07/16 10:35:29;;;;;;;1.40;1.10;;;;;;;34.25;19.45;100552.97;5589876;31;34967;-66
2022/07/16 10:38:32;;;;;;;1.50;1.05;;;;;;;32.55;21.60;100554.38;5576672;31;32838;-67
2022/07/16 10:41:47;;;;;;;2.03;0.98;;;;;;;33.17;20.62;100550.69;5590067;31;34207;-67
2022/07/16 10:44:51;;;;;;;1.48;1.00;;;;;;;33.20;20.43;100543.78;5589831;31;34801;-66
2022/07/16 10:47:56;;;;;;;2.25;1.12;;;;;;;31.18;22.44;100539.81;5589696;31;35217;-67
2022/07/16 10:51:17;;;;;;;1.87;1.00;;;;;;;31.55;22.39;100528.69;5589546;31;34708;-67
2022/07/16 10:54:19;;;;;;;1.30;0.93;;;;;;;32.56;21.48;100534.84;5588926;31;32719;-67
2022/07/16 10:57:33;;;;;;;1.58;1.02;;;;;;;32.79;21.26;100530.19;5588803;31;34133;-67
2022/07/16 11:00:36;;;;;;;2.83;1.20;;;;;;;34.67;19.79;100529.38;5589695;31;33913;-67
2022/07/16 11:03:40;;;;;;;3.10;1.30;;;;;;;32.52;21.74;100530.28;5589563;31;33949;-67
2022/07/16 11:06:53;;;;;;;2.65;1.10;;;;;;;33.06;20.83;100523.78;5588793;31;32821;-68
2022/07/16 11:09:56;;;;;;;2.60;1.27;;;;;;;34.94;19.12;100516.38;5589841;31;34323;-67
2022/07/16 11:12:59;;;;;;;1.70;1.00;;;;;;;37.38;17.20;100513.06;5588503;31;32455;-67
2022/07/16 11:16:09;;;;;;;4.12;1.23;;;;;;;39.67;15.63;100513.88;5576165;31;33376;-67
2022/07/16 11:19:12;;;;;;;2.97;1.15;;;;;;;38.87;16.03;100514.16;5575024;31;32729;-68
2022/07/16 11:22:24;;;;;;;3.25;1.00;;;;;;;40.37;14.45;100509.22;5589302;31;35146;-68
2022/07/16 11:25:27;;;;;;;1.50;1.08;;;;;;;39.73;14.58;100506.91;5589666;31;34656;-66
2022/07/16 11:28:31;;;;;;;1.25;0.80;;;;;;;39.81;14.43;100506.72;5589667;31;33944;-67
2022/07/16 11:31:35;;;;;;;1.80;1.10;;;;;;;39.29;14.77;100501.44;5589486;31;34055;-67
2022/07/16 11:34:39;;;;;;;2.42;1.20;;;;;;;38.69;15.02;100497.81;5588947;31;32465;-66
2022/07/16 11:37:57;;;;;;;1.37;1.00;;;;;;;37.76;16.15;100507.22;5589512;31;34251;-67
2022/07/16 11:41:03;;;;;;;2.95;0.88;;;;;;;37.86;16.55;100506.75;5589640;31;33952;-68
2022/07/16 11:44:09;;;;;;;4.37;1.30;;;;;;;38.96;15.17;100510.09;5588404;31;33239;-66
2022/07/16 11:47:13;;;;;;;0.95;0.88;;;;;;;39.70;14.89;100507.63;5589575;31;34410;-66
2022/07/16 11:50:27;;;;;;;5.15;1.35;;;;;;;37.73;15.91;100509.88;5589642;31;34061;-67
2022/07/16 11:53:36;;;;;;;6.45;1.37;;;;;;;38.51;16.06;100501.25;5589435;31;33994;-67
2022/07/16 11:56:41;;;;;;;4.35;1.02;;;;;;;37.28;16.46;100510.72;5589340;31;33935;-68
2022/07/16 11:59:52;;;;;;;3.50;1.37;;;;;;;37.84;16.80;100492.44;5589239;31;33880;-67
2022/07/16 12:02:57;;;;;;;2.15;0.90;;;;;;;38.19;16.07;100501.09;5589166;31;34042;-67
2022/07/16 12:06:06;;;;;;;3.03;1.20;;;;;;;39.81;15.12;100492.84;5589178;31;34002;-66
2022/07/16 12:09:09;;;;;;;5.62;1.40;;;;;;;39.03;15.71;100498.34;5587885;31;33368;-66
2022/07/16 12:12:17;;;;;;;2.05;1.20;;;;;;;36.61;17.65;100493.66;5588721;31;35235;-67
2022/07/16 12:15:20;;;;;;;3.00;1.45;;;;;;;38.81;15.81;100496.94;5589189;31;34700;-68
2022/07/16 12:18:24;;;;;;;4.30;1.35;;;;;;;39.61;15.51;100504.22;5589061;31;34638;-67
2022/07/16 12:21:29;;;;;;;4.30;1.42;;;;;;;37.47;16.86;100490.00;5589227;31;34003;-67
2022/07/16 12:24:32;;;;;;;2.20;1.27;;;;;;;38.92;16.12;100483.41;5588483;31;34375;-68
2022/07/16 12:27:46;;;;;;;2.60;1.23;;;;;;;36.98;17.26;100484.37;5588476;31;34582;-69
2022/07/16 12:30:52;;;;;;;3.58;1.37;;;;;;;33.27;20.89;100475.38;5589742;31;33887;-66
2022/07/16 12:33:56;;;;;;;5.65;1.77;;;;;;;34.45;20.12;100483.50;5591208;31;35241;-66
2022/07/16 12:36:59;;;;;;;1.75;1.15;;;;;;;36.41;18.08;100473.16;5591225;31;34524;-66
2022/07/16 12:40:14;;;;;;;3.30;1.42;;;;;;;34.47;19.69;100472.13;5589997;31;33907;-66
2022/07/16 12:43:17;;;;;;;3.45;1.70;;;;;;;32.31;21.99;100475.00;5591096;31;34541;-67
2022/07/16 12:46:23;;;;;;;3.25;1.42;;;;;;;31.69;23.52;100466.47;5590738;31;34244;-67
2022/07/16 12:49:27;;;;;;;3.87;1.50;;;;;;;32.56;22.05;100474.41;5590122;31;32440;-67
2022/07/16 12:52:31;;;;;;;2.90;1.40;;;;;;;32.41;21.97;100479.44;5591124;31;34063;-69
2022/07/16 12:58:56;;;;;;;2.17;1.27;;;;;;;31.92;22.24;100462.66;5591065;31;34764;-66
2022/07/16 13:02:00;;;;;;;3.35;1.23;;;;;;;30.64;24.10;100451.59;5591217;31;34627;-68
2022/07/16 13:05:03;;;;;;;5.28;1.10;;;;;;;32.45;22.33;100462.03;5590733;31;33975;-68
2022/07/16 13:08:06;;;;;;;4.82;1.52;;;;;;;34.56;19.74;100459.19;5591146;31;34687;-68
2022/07/16 13:11:11;;;;;;;7.22;1.40;;;;;;;34.19;19.47;100460.63;5590123;31;34194;-67
2022/07/16 13:14:15;;;;;;;8.13;1.10;;;;;;;35.27;18.96;100462.31;5590402;31;33889;-68
2022/07/16 13:17:20;;;;;;;1.90;1.10;;;;;;;36.82;17.92;100466.81;5590255;31;34045;-67
2022/07/16 13:20:24;;;;;;;3.78;1.30;;;;;;;37.42;17.30;100463.38;5590795;31;34583;-68
2022/07/16 13:23:27;;;;;;;2.87;1.25;;;;;;;33.52;20.60;100462.88;5576769;31;32944;-67
2022/07/16 13:26:31;;;;;;;3.67;1.45;;;;;;;33.08;21.37;100469.28;5589895;31;32870;-69
2022/07/16 13:29:35;;;;;;;2.12;1.12;;;;;;;37.22;17.36;100467.84;5577242;31;32695;-69
2022/07/16 13:32:38;;;;;;;2.00;1.40;;;;;;;35.25;19.23;100464.56;5576651;31;33892;-67
2022/07/16 13:35:43;;;;;;;11.48;1.35;;;;;;;35.52;18.91;100463.34;5590619;31;34163;-66
2022/07/16 13:38:49;;;;;;;2.80;1.37;;;;;;;36.37;18.02;100469.47;5590475;31;34485;-68
2022/07/16 13:41:53;;;;;;;4.30;1.23;;;;;;;37.84;16.53;100478.59;5589211;31;32638;-68
2022/07/16 13:44:56;;;;;;;3.58;1.25;;;;;;;37.55;17.08;100466.97;5590326;31;33908;-67
2022/07/16 13:47:59;;;;;;;3.60;1.33;;;;;;;33.93;19.92;100466.09;5590161;31;34020;-68
2022/07/16 13:51:03;;;;;;;2.58;1.20;;;;;;;36.51;17.54;100470.81;5590398;31;34716;-67
2022/07/16 13:54:25;;;;;;;4.10;1.20;;;;;;;36.06;17.90;100459.62;5557449;31;32537;-67
2022/07/16 14:00:56;;;;;;;2.55;1.40;;;;;;;37.23;16.72;100461.16;5589755;31;33609;-67
2022/07/16 14:04:01;;;;;;;1.80;1.17;;;;;;;38.17;15.88;100455.47;5589169;31;34085;-68
2022/07/16 14:07:06;;;;;;;2.47;1.10;;;;;;;36.47;17.11;100458.81;5590275;31;33683;-67
2022/07/16 14:10:13;;;;;;;2.80;1.40;;;;;;;37.86;15.70;100458.84;5590486;31;34785;-69
2022/07/16 14:13:22;;;;;;;2.62;1.27;;;;;;;36.46;16.98;100451.66;5576115;31;32993;-68
2022/07/16 14:16:26;;;;;;;4.45;0.98;;;;;;;35.76;17.18;100460.78;5589250;31;32864;-67
2022/07/16 14:19:29;;;;;;;2.12;1.20;;;;;;;35.49;17.78;100450.19;5590440;31;34661;-67
2022/07/16 14:22:32;;;;;;;2.42;1.05;;;;;;;36.90;16.21;100449.31;5590189;31;34159;-67
2022/07/16 14:25:36;;;;;;;3.08;1.30;;;;;;;33.68;18.86;100455.84;5588853;31;33195;-66
2022/07/16 14:28:41;;;;;;;2.65;1.27;;;;;;;33.86;19.14;100452.00;5576651;31;33053;-68
2022/07/16 14:31:44;;;;;;;1.25;1.10;;;;;;;31.71;20.87;100445.00;5589531;31;33894;-68
2022/07/16 14:34:48;;;;;;;4.28;1.15;;;;;;;30.88;22.00;100440.56;5576266;31;32908;-68
2022/07/16 14:37:56;;;;;;;3.50;1.20;;;;;;;30.01;22.95;100436.72;5589770;31;34183;-68